createdAt,value
2022-10-11T00:02:21.532Z,39.17
2022-10-11T00:04:58.963Z,36.92
2022-10-11T00:07:41.004Z,39.63
2022-10-11T00:10:20.260Z,40.20
2022-10-11T00:12:56.307Z,32.85
2022-10-11T00:15:39.122Z,34.78
2022-10-11T00:18:25.201Z,28.30
2022-10-11T00:21:13.204Z,29.92
2022-10-11T00:23:46.556Z,28.92
2022-10-11T00:29:02.022Z,31.48
2022-10-11T00:31:48.616Z,29.95
2022-10-11T00:34:29.731Z,29.98
2022-10-11T00:37:01.218Z,25.08
2022-10-11T00:39:37.071Z,30.38
2022-10-11T00:42:22.824Z,30.55
2022-10-11T00:45:33.070Z,24.23
2022-10-11T00:48:27.676Z,29.23
2022-10-11T00:50:57.424Z,23.45
2022-10-11T00:53:51.223Z,23.02
2022-10-11T00:56:26.161Z,22.07
2022-10-11T00:59:07.355Z,24.80
2022-10-11T01:01:46.266Z,25.95
2022-10-11T01:04:26.432Z,24.50
2022-10-11T01:07:11.293Z,28.70
2022-10-11T01:09:42.195Z,27.45
2022-10-11T01:12:31.577Z,26.05
2022-10-11T01:15:27.704Z,25.73
2022-10-11T01:18:36.671Z,25.92
2022-10-11T01:21:51.075Z,28.75
2022-10-11T01:24:59.767Z,29.15
2022-10-11T01:27:57.218Z,27.30
2022-10-11T01:30:36.447Z,28.35
2022-10-11T01:33:36.047Z,29.25
2022-10-11T01:36:37.690Z,27.70
2022-10-11T01:39:53.405Z,24.80
2022-10-11T01:42:32.643Z,26.58
2022-10-11T01:45:07.105Z,27.33
2022-10-11T01:47:39.128Z,32.40
2022-10-11T01:50:46.761Z,26.85
2022-10-11T01:53:45.761Z,25.95
2022-10-11T01:56:53.806Z,28.50
2022-10-11T01:59:59.082Z,28.77
2022-10-11T02:02:46.383Z,26.55
2022-10-11T02:05:32.499Z,27.55
2022-10-11T02:08:39.652Z,30.00
2022-10-11T02:11:31.493Z,28.05
2022-10-11T02:14:14.028Z,31.92
2022-10-11T02:16:59.630Z,27.25
2022-10-11T02:19:44.052Z,27.67
2022-10-11T02:22:39.462Z,26.88
2022-10-11T02:25:19.081Z,28.15
2022-10-11T02:28:03.530Z,27.35
2022-10-11T02:30:42.055Z,29.70
2022-10-11T02:33:21.705Z,30.58
2022-10-11T02:36:09.099Z,26.70
2022-10-11T02:39:07.299Z,25.58
2022-10-11T02:41:52.349Z,26.85
2022-10-11T02:44:59.641Z,29.40
2022-10-11T02:47:38.088Z,24.35
2022-10-11T02:50:15.056Z,28.27
2022-10-11T02:52:50.185Z,26.27
2022-10-11T02:55:31.820Z,27.58
2022-10-11T02:58:15.092Z,24.77
2022-10-11T03:00:57.317Z,28.08
2022-10-11T03:03:52.203Z,23.20
2022-10-11T03:06:29.622Z,28.02
2022-10-11T03:09:10.885Z,21.58
2022-10-11T03:11:44.288Z,23.15
2022-10-11T03:14:26.321Z,25.75
2022-10-11T03:17:35.120Z,26.45
2022-10-11T03:20:07.107Z,30.65
2022-10-11T03:22:44.336Z,32.50
2022-10-11T03:25:19.721Z,36.30
2022-10-11T03:28:00.688Z,41.22
2022-10-11T03:30:50.015Z,36.47
2022-10-11T03:33:31.132Z,38.40
2022-10-11T03:36:04.755Z,39.85
2022-10-11T03:38:45.947Z,39.22
2022-10-11T03:41:15.431Z,39.63
2022-10-11T03:43:53.203Z,41.85
2022-10-11T03:46:26.049Z,47.45
2022-10-11T03:49:20.060Z,49.05
2022-10-11T03:51:59.094Z,49.95
2022-10-11T03:54:31.097Z,47.00
2022-10-11T03:57:14.411Z,54.70
2022-10-11T03:59:51.912Z,52.63
2022-10-11T04:02:36.986Z,52.38
2022-10-11T04:05:15.267Z,47.72
2022-10-11T04:08:00.034Z,50.05
2022-10-11T04:10:51.060Z,51.80
2022-10-11T04:13:20.772Z,51.25
2022-10-11T04:15:57.047Z,50.75
2022-10-11T04:18:32.082Z,47.25
2022-10-11T04:21:15.492Z,54.40
2022-10-11T04:23:52.608Z,51.38
2022-10-11T04:26:36.126Z,48.60
2022-10-11T04:29:11.059Z,52.22
2022-10-11T04:31:52.155Z,53.55
2022-10-11T04:34:35.932Z,48.92
2022-10-11T04:37:16.484Z,51.00
2022-10-11T04:39:59.276Z,49.55
2022-10-11T04:42:37.679Z,48.67
2022-10-11T04:45:10.084Z,46.42
2022-10-11T04:47:45.529Z,43.00
2022-10-11T04:50:24.040Z,42.70
2022-10-11T04:53:02.001Z,45.28
2022-10-11T04:55:51.219Z,40.83
2022-10-11T04:58:29.010Z,40.08
2022-10-11T05:04:10.210Z,37.40
2022-10-11T05:06:54.634Z,38.25
2022-10-11T05:09:36.193Z,45.92
2022-10-11T05:12:14.741Z,48.20
2022-10-11T05:15:02.449Z,45.55
2022-10-11T05:17:48.936Z,40.20
2022-10-11T05:20:24.365Z,43.70
2022-10-11T05:23:08.567Z,42.90
2022-10-11T05:25:46.594Z,37.88
2022-10-11T05:28:27.118Z,40.72
2022-10-11T05:31:10.908Z,40.97
2022-10-11T05:33:46.731Z,38.58
2022-10-11T05:36:38.049Z,43.63
2022-10-11T05:39:25.506Z,39.83
2022-10-11T05:42:09.929Z,39.33
2022-10-11T05:44:40.228Z,34.65
2022-10-11T05:47:26.786Z,36.63
2022-10-11T05:50:06.703Z,37.88
2022-10-11T05:52:46.149Z,35.30
2022-10-11T05:55:13.639Z,33.70
2022-10-11T05:58:03.800Z,34.90
2022-10-11T06:00:46.852Z,30.40
2022-10-11T06:03:24.039Z,26.65
2022-10-11T06:06:15.348Z,29.33
2022-10-11T06:08:57.480Z,28.88
2022-10-11T06:11:39.213Z,30.00
2022-10-11T06:14:17.039Z,24.95
2022-10-11T06:16:48.879Z,25.23
2022-10-11T06:19:38.625Z,26.05
2022-10-11T06:22:20.701Z,21.67
2022-10-11T06:25:00.834Z,24.58
2022-10-11T06:27:46.366Z,21.92
2022-10-11T06:30:33.821Z,18.25
2022-10-11T06:33:18.948Z,17.92
2022-10-11T06:36:02.397Z,14.52
2022-10-11T06:38:38.002Z,21.92
2022-10-11T06:41:21.296Z,17.83
2022-10-11T06:44:14.286Z,18.75
2022-10-11T06:46:52.770Z,14.48
2022-10-11T06:49:34.571Z,22.67
2022-10-11T06:52:19.837Z,19.15
2022-10-11T06:55:00.326Z,22.00
2022-10-11T06:57:35.767Z,28.80
2022-10-11T07:00:12.906Z,20.08
2022-10-11T07:02:48.212Z,21.10
2022-10-11T07:05:33.049Z,19.73
2022-10-11T07:08:07.809Z,26.00
2022-10-11T07:10:44.055Z,18.95
2022-10-11T07:13:22.518Z,23.02
2022-10-11T07:15:55.354Z,21.65
2022-10-11T07:18:36.412Z,21.58
2022-10-11T07:21:07.507Z,14.27
2022-10-11T07:23:40.968Z,17.50
2022-10-11T07:26:09.437Z,11.82
2022-10-11T07:28:52.183Z,13.02
2022-10-11T07:31:34.812Z,11.57
2022-10-11T07:34:12.196Z,11.60
2022-10-11T07:36:54.000Z,21.70
2022-10-11T07:39:34.451Z,15.82
2022-10-11T07:42:10.088Z,12.98
2022-10-11T07:44:48.650Z,18.38
2022-10-11T07:47:31.150Z,11.50
2022-10-11T07:49:57.958Z,15.25
2022-10-11T07:52:37.537Z,19.25
2022-10-11T07:55:17.723Z,19.60
2022-10-11T07:57:58.460Z,25.67
2022-10-11T08:00:40.393Z,47.67
2022-10-11T08:03:26.252Z,46.13
2022-10-11T08:06:06.332Z,38.78
2022-10-11T08:08:49.974Z,33.67
2022-10-11T08:11:42.879Z,44.75
2022-10-11T08:14:21.166Z,30.23
2022-10-11T08:17:01.175Z,28.95
2022-10-11T08:19:38.542Z,21.60
2022-10-11T08:22:20.122Z,26.63
2022-10-11T08:24:59.918Z,13.40
2022-10-11T08:27:34.854Z,14.93
2022-10-11T08:30:21.143Z,14.55
2022-10-11T08:32:56.406Z,11.38
2022-10-11T08:35:35.294Z,12.05
2022-10-11T08:38:14.227Z,14.00
2022-10-11T08:40:58.713Z,11.73
2022-10-11T08:43:50.349Z,11.98
2022-10-11T08:47:00.312Z,15.00
2022-10-11T08:49:43.403Z,13.18
2022-10-11T08:52:41.187Z,13.63
2022-10-11T08:55:45.115Z,11.25
2022-10-11T08:58:22.437Z,15.57
2022-10-11T09:01:13.747Z,19.42
2022-10-11T09:04:06.191Z,12.63
2022-10-11T09:07:07.488Z,14.35
2022-10-11T09:09:52.948Z,18.08
2022-10-11T09:12:56.244Z,13.50
2022-10-11T09:15:46.926Z,14.48
2022-10-11T09:18:52.286Z,17.08
2022-10-11T09:21:50.378Z,12.95
2022-10-11T09:24:38.050Z,14.10
2022-10-11T09:28:02.260Z,23.40
2022-10-11T09:30:45.814Z,14.90
2022-10-11T09:33:39.488Z,16.70
2022-10-11T09:36:25.599Z,17.98
2022-10-11T09:39:33.092Z,18.30
2022-10-11T09:42:12.024Z,21.73
2022-10-11T09:45:03.414Z,24.20
2022-10-11T09:47:55.531Z,13.43
2022-10-11T09:50:35.745Z,17.42
2022-10-11T09:53:08.180Z,22.67
2022-10-11T09:56:07.868Z,15.02
2022-10-11T09:58:48.680Z,15.27
2022-10-11T10:01:32.836Z,20.10
2022-10-11T10:04:13.769Z,22.15
2022-10-11T10:06:46.063Z,16.52
2022-10-11T10:09:34.103Z,24.60
2022-10-11T10:12:14.026Z,16.00
2022-10-11T10:15:06.970Z,25.92
2022-10-11T10:17:51.333Z,18.05
2022-10-11T10:20:33.578Z,15.02
2022-10-11T10:23:20.977Z,18.30
2022-10-11T10:26:19.974Z,21.02
2022-10-11T10:29:09.599Z,19.08
2022-10-11T10:32:14.905Z,19.17
2022-10-11T10:35:20.098Z,19.40
2022-10-11T10:38:15.895Z,18.02
2022-10-11T10:40:53.616Z,16.60
2022-10-11T10:43:41.205Z,20.08
2022-10-11T10:46:33.324Z,21.17
2022-10-11T10:49:52.696Z,17.67
2022-10-11T10:52:42.997Z,28.10
2022-10-11T10:55:31.775Z,18.80
2022-10-11T10:58:39.338Z,22.55
2022-10-11T11:01:32.142Z,14.68
2022-10-11T11:04:28.016Z,15.35
2022-10-11T11:07:24.949Z,19.25
2022-10-11T11:10:19.504Z,12.52
2022-10-11T11:13:41.456Z,15.50
2022-10-11T11:19:49.233Z,16.33
2022-10-11T11:22:40.284Z,22.25
2022-10-11T11:26:00.741Z,21.55
2022-10-11T11:28:57.551Z,15.57
2022-10-11T11:32:13.890Z,16.20
2022-10-11T11:35:15.250Z,20.58
2022-10-11T11:38:02.542Z,15.40
2022-10-11T11:40:54.357Z,15.95
2022-10-11T11:44:06.014Z,15.00
2022-10-11T11:46:43.599Z,19.90
2022-10-11T11:52:43.456Z,19.77
2022-10-11T11:55:25.617Z,14.88
2022-10-11T11:58:20.184Z,14.40
2022-10-11T12:01:30.964Z,21.35
2022-10-11T12:04:28.563Z,18.23
2022-10-11T12:07:19.833Z,18.02
2022-10-11T12:09:55.311Z,14.65
2022-10-11T12:12:39.389Z,16.85
2022-10-11T12:15:30.365Z,14.70
2022-10-11T12:18:17.613Z,17.92
2022-10-11T12:21:30.620Z,15.50
2022-10-11T12:24:16.163Z,15.88
2022-10-11T12:27:03.089Z,16.15
2022-10-11T12:29:50.086Z,17.25
2022-10-11T12:32:30.812Z,23.98
2022-10-11T12:35:36.520Z,16.17
2022-10-11T12:38:22.720Z,24.23
2022-10-11T12:41:21.469Z,20.48
2022-10-11T12:44:08.929Z,18.63
2022-10-11T12:47:22.954Z,21.53
2022-10-11T12:50:12.157Z,18.88
2022-10-11T12:53:12.453Z,18.95
2022-10-11T12:56:09.145Z,15.02
2022-10-11T12:58:52.947Z,19.65
2022-10-11T13:01:37.030Z,19.60
2022-10-11T13:04:28.799Z,16.60
2022-10-11T13:07:18.514Z,24.05
2022-10-11T13:13:26.082Z,19.00
2022-10-11T13:16:09.426Z,15.90
2022-10-11T13:18:53.767Z,19.70
2022-10-11T13:21:47.572Z,16.88
2022-10-11T13:24:29.049Z,21.55
2022-10-11T13:27:10.726Z,17.48
2022-10-11T13:29:47.633Z,19.30
2022-10-11T13:32:36.468Z,14.85
2022-10-11T13:35:22.355Z,16.60
2022-10-11T13:38:00.435Z,16.80
2022-10-11T13:40:35.839Z,22.25
2022-10-11T13:43:12.667Z,19.27
2022-10-11T13:45:50.448Z,16.58
2022-10-11T13:48:47.861Z,15.95
2022-10-11T13:51:36.302Z,18.27
2022-10-11T13:54:13.120Z,14.10
2022-10-11T13:56:58.621Z,20.52
2022-10-11T14:02:22.543Z,17.15
2022-10-11T14:05:03.573Z,15.82
2022-10-11T14:07:42.167Z,14.07
2022-10-11T14:10:38.905Z,14.77
2022-10-11T14:13:26.903Z,20.77
2022-10-11T14:16:27.034Z,14.80
2022-10-11T14:19:10.667Z,18.15
2022-10-11T14:21:55.080Z,15.10
2022-10-11T14:25:05.284Z,16.70
2022-10-11T14:27:42.793Z,18.83
2022-10-11T14:30:27.407Z,19.00
2022-10-11T14:33:14.181Z,15.98
2022-10-11T14:35:50.567Z,16.92
2022-10-11T14:38:30.776Z,16.75
2022-10-11T14:41:16.064Z,18.58
2022-10-11T14:43:57.195Z,17.73
2022-10-11T14:49:17.087Z,19.30
2022-10-11T14:51:51.281Z,17.63
2022-10-11T14:54:33.806Z,19.63
2022-10-11T14:57:12.268Z,18.85
2022-10-11T14:59:50.072Z,24.58
2022-10-11T15:02:28.113Z,22.63
2022-10-11T15:05:04.126Z,21.38
2022-10-11T15:07:37.137Z,20.02
2022-10-11T15:10:16.378Z,21.05
2022-10-11T15:12:49.865Z,17.45
2022-10-11T15:15:32.861Z,18.88
2022-10-11T15:18:37.289Z,19.05
2022-10-11T15:21:27.727Z,17.30
2022-10-11T15:24:14.462Z,27.35
2022-10-11T15:26:51.334Z,26.08
2022-10-11T15:29:24.356Z,22.30
2022-10-11T15:32:04.378Z,18.52
2022-10-11T15:34:46.858Z,28.85
2022-10-11T15:37:28.698Z,20.90
2022-10-11T15:40:18.081Z,24.73
2022-10-11T15:43:04.135Z,21.17
2022-10-11T15:45:39.547Z,27.60
2022-10-11T15:48:21.196Z,22.50
2022-10-11T15:50:59.323Z,30.80
2022-10-11T15:53:37.090Z,28.55
2022-10-11T15:56:12.349Z,23.90
2022-10-11T15:58:50.346Z,35.10
2022-10-11T16:01:21.170Z,28.60
2022-10-11T16:04:01.550Z,25.67
2022-10-11T16:06:41.162Z,35.38
2022-10-11T16:09:18.829Z,29.10
2022-10-11T16:11:54.569Z,29.55
2022-10-11T16:14:33.886Z,35.45
2022-10-11T16:17:12.301Z,33.25
2022-10-11T16:19:53.398Z,25.50
2022-10-11T16:22:29.282Z,25.50
2022-10-11T16:25:02.495Z,30.98
2022-10-11T16:27:40.662Z,26.70
2022-10-11T16:30:22.077Z,28.67
2022-10-11T16:33:13.130Z,26.02
2022-10-11T16:35:49.316Z,27.15
2022-10-11T16:38:27.548Z,28.50
2022-10-11T16:40:57.284Z,34.78
2022-10-11T16:43:31.936Z,30.10
2022-10-11T16:46:03.581Z,29.42
2022-10-11T16:48:36.035Z,30.73
2022-10-11T16:51:09.685Z,36.50
2022-10-11T16:53:48.111Z,32.97
2022-10-11T16:56:37.403Z,39.20
2022-10-11T16:59:21.058Z,48.92
2022-10-11T17:01:58.940Z,47.92
2022-10-11T17:04:35.094Z,52.85
2022-10-11T17:07:21.917Z,53.85
2022-10-11T17:10:04.164Z,49.17
2022-10-11T17:12:46.539Z,44.70
2022-10-11T17:15:29.409Z,58.10
2022-10-11T17:18:15.938Z,65.43
2022-10-11T17:20:51.913Z,79.20
2022-10-11T17:23:35.872Z,91.35
2022-10-11T17:26:23.638Z,81.30
2022-10-11T17:31:53.498Z,98.30
2022-10-11T17:34:29.120Z,155.63
2022-10-11T17:37:06.032Z,163.05
2022-10-11T17:39:47.283Z,156.88
2022-10-11T17:42:37.561Z,178.18
2022-10-11T17:45:22.005Z,203.70
2022-10-11T17:47:58.779Z,191.77
2022-10-11T17:50:50.356Z,262.63
2022-10-11T17:53:35.610Z,242.15
2022-10-11T17:56:18.766Z,246.70
2022-10-11T17:59:14.270Z,273.77
2022-10-11T18:01:50.372Z,278.48
2022-10-11T18:04:29.489Z,254.55
2022-10-11T18:09:56.348Z,229.68
2022-10-11T18:12:35.056Z,222.88
2022-10-11T18:15:16.073Z,212.43
2022-10-11T18:17:47.366Z,188.07
2022-10-11T18:20:29.859Z,153.45
2022-10-11T18:23:03.496Z,136.13
2022-10-11T18:25:45.829Z,135.18
2022-10-11T18:28:31.775Z,119.53
2022-10-11T18:31:17.958Z,116.72
2022-10-11T18:34:00.168Z,105.60
2022-10-11T18:36:50.028Z,105.97
2022-10-11T18:39:23.716Z,92.38
2022-10-11T18:42:00.468Z,94.13
2022-10-11T18:44:38.196Z,82.28
2022-10-11T18:47:32.489Z,77.60
2022-10-11T18:50:06.774Z,70.45
2022-10-11T18:52:48.674Z,71.50
2022-10-11T18:55:33.067Z,68.80
2022-10-11T18:58:12.074Z,71.32
2022-10-11T19:00:53.199Z,66.97
2022-10-11T19:03:52.785Z,75.60
2022-10-11T19:06:32.879Z,73.93
2022-10-11T19:09:13.332Z,81.88
2022-10-11T19:11:50.901Z,75.18
2022-10-11T19:14:29.450Z,74.10
2022-10-11T19:17:11.171Z,79.18
2022-10-11T19:25:01.461Z,79.13
2022-10-11T19:27:39.653Z,82.78
2022-10-11T19:30:17.880Z,86.38
2022-10-11T19:32:48.212Z,94.63
2022-10-11T19:35:20.460Z,85.95
2022-10-11T19:38:00.729Z,82.05
2022-10-11T19:40:41.937Z,87.20
2022-10-11T19:43:22.112Z,90.85
2022-10-11T19:45:54.682Z,73.43
2022-10-11T19:48:31.093Z,85.35
2022-10-11T19:51:15.065Z,73.65
2022-10-11T19:54:03.564Z,76.70
2022-10-11T19:56:43.875Z,77.20
2022-10-11T19:59:39.152Z,79.97
2022-10-11T20:02:15.730Z,72.95
2022-10-11T20:05:00.969Z,80.70
2022-10-11T20:07:49.871Z,69.28
2022-10-11T20:10:36.071Z,67.53
2022-10-11T20:13:14.615Z,70.28
2022-10-11T20:15:55.557Z,69.25
2022-10-11T20:18:46.084Z,73.30
2022-10-11T20:21:29.517Z,75.47
2022-10-11T20:23:59.309Z,70.25
2022-10-11T20:26:48.782Z,62.67
2022-10-11T20:29:27.274Z,69.55
2022-10-11T20:32:02.062Z,70.78
2022-10-11T20:34:56.484Z,72.90
2022-10-11T20:37:32.187Z,73.13
2022-10-11T20:40:07.316Z,66.32
2022-10-11T20:42:43.262Z,79.20
2022-10-11T20:45:21.616Z,64.45
2022-10-11T20:48:00.856Z,70.22
2022-10-11T20:50:51.723Z,61.33
2022-10-11T20:53:24.962Z,70.88
2022-10-11T20:56:06.396Z,96.60
2022-10-11T20:58:53.842Z,74.82
2022-10-11T21:01:43.191Z,68.32
2022-10-11T21:04:30.676Z,75.72
2022-10-11T21:07:11.729Z,72.85
2022-10-11T21:09:55.869Z,73.35
2022-10-11T21:12:40.025Z,70.80
2022-10-11T21:15:21.080Z,80.53
2022-10-11T21:17:59.695Z,70.07
2022-10-11T21:20:32.981Z,74.05
2022-10-11T21:23:08.843Z,72.70
2022-10-11T21:25:58.106Z,74.70
2022-10-11T21:28:34.137Z,71.07
2022-10-11T21:31:15.598Z,75.63
2022-10-11T21:33:46.217Z,65.95
2022-10-11T21:36:24.955Z,76.72
2022-10-11T21:38:56.255Z,71.80
2022-10-11T21:41:37.433Z,71.38
2022-10-11T21:44:20.622Z,84.10
2022-10-11T21:47:08.447Z,85.50
2022-10-11T21:49:44.459Z,81.25
2022-10-11T21:52:17.466Z,74.95
2022-10-11T21:54:47.693Z,73.10
2022-10-11T21:57:20.294Z,74.05
2022-10-11T21:59:59.066Z,84.38
2022-10-11T22:02:37.934Z,83.57
2022-10-11T22:05:15.288Z,87.13
2022-10-11T22:07:48.981Z,75.30
2022-10-11T22:10:23.655Z,92.63
2022-10-11T22:13:03.068Z,81.82
2022-10-11T22:15:40.265Z,77.15
2022-10-11T22:18:20.855Z,78.88
2022-10-11T22:21:22.518Z,78.68
2022-10-11T22:26:30.115Z,81.32
2022-10-11T22:29:09.046Z,77.05
2022-10-11T22:31:42.460Z,82.80
2022-10-11T22:34:19.060Z,85.85
2022-10-11T22:36:51.178Z,86.88
2022-10-11T22:39:18.653Z,84.65
2022-10-11T22:42:03.290Z,79.13
2022-10-11T22:44:36.996Z,78.53
2022-10-11T22:47:21.198Z,85.78
2022-10-11T22:52:28.954Z,81.05
2022-10-11T22:55:08.196Z,75.75
2022-10-11T22:57:55.584Z,78.82
2022-10-11T23:00:39.098Z,76.25
2022-10-11T23:03:18.587Z,75.38
2022-10-11T23:06:00.472Z,70.22
2022-10-11T23:08:32.972Z,72.32
2022-10-11T23:11:18.142Z,69.10
2022-10-11T23:13:47.902Z,73.18
2022-10-11T23:16:29.632Z,70.85
2022-10-11T23:19:07.842Z,70.82
2022-10-11T23:21:51.094Z,70.05
2022-10-11T23:24:46.992Z,69.32
2022-10-11T23:27:32.161Z,69.00
2022-10-11T23:30:07.781Z,71.47
2022-10-11T23:32:45.303Z,71.85
2022-10-11T23:35:18.762Z,80.57
2022-10-11T23:38:07.324Z,73.05
2022-10-11T23:40:45.182Z,72.20
2022-10-11T23:43:44.242Z,88.93
2022-10-11T23:46:24.902Z,75.68
2022-10-11T23:48:51.734Z,75.93
2022-10-11T23:51:26.289Z,77.68
2022-10-11T23:54:04.100Z,72.55
2022-10-11T23:56:48.095Z,69.72
2022-10-11T23:59:30.000Z,65.82
